Time;durP1;ratioP1;P1;durP2;ratioP2;P2;SDS_P1;SDS_P2;PMS_P1;PMS_P2;Temp;Humidity;BMP_temperature;BMP_pressure;BME280_temperature;BME280_humidity;BME280_pressure;Samples;Min_cycle;Max_cycle;Signal;HPM_P1;HPM_P2
2022/07/04 00:04:14;;;;;;;2.75;2.55;;;;;;;18.37;82.57;96548.50;10413155;28;20228;-55
2022/07/04 00:09:14;;;;;;;2.55;2.30;;;;;;;18.28;82.74;96555.06;10413534;28;20255;-51
2022/07/04 00:14:15;;;;;;;3.40;2.45;;;;;;;18.02;83.72;96559.41;10413662;28;20235;-53
2022/07/04 00:19:15;;;;;;;2.85;2.20;;;;;;;18.11;81.71;96549.41;10413190;28;20200;-53
2022/07/04 00:24:15;;;;;;;2.58;2.38;;;;;;;18.02;82.17;96554.09;10413003;28;20307;-57
2022/07/04 00:29:16;;;;;;;2.28;2.08;;;;;;;17.83;82.91;96561.84;10412829;28;20205;-51
2022/07/04 00:34:16;;;;;;;5.18;2.63;;;;;;;17.60;84.82;96580.03;10412628;28;20224;-56
2022/07/04 00:39:17;;;;;;;4.10;2.35;;;;;;;17.37;84.85;96585.72;10412626;28;20309;-55
2022/07/04 00:44:17;;;;;;;3.97;1.85;;;;;;;17.84;78.78;96549.44;10412169;28;20223;-51
2022/07/04 00:49:18;;;;;;;2.08;1.80;;;;;;;17.98;78.21;96560.84;10412206;28;20192;-51
2022/07/04 00:54:19;;;;;;;1.95;1.77;;;;;;;18.02;77.10;96570.00;10412049;28;20216;-51
2022/07/04 00:59:19;;;;;;;4.05;1.90;;;;;;;18.15;76.01;96571.84;10410250;28;20208;-53
2022/07/04 01:04:20;;;;;;;1.92;1.73;;;;;;;18.27;74.92;96570.16;10410296;28;20249;-57
2022/07/04 01:09:20;;;;;;;2.13;1.50;;;;;;;18.27;74.63;96579.94;10411351;28;20283;-55
2022/07/04 01:14:21;;;;;;;1.70;1.50;;;;;;;18.11;75.74;96608.53;10411873;28;20212;-51
2022/07/04 01:19:22;;;;;;;1.92;1.77;;;;;;;17.73;77.48;96625.03;10411265;28;20200;-56
2022/07/04 01:24:22;;;;;;;1.80;1.70;;;;;;;17.48;79.94;96659.28;10411187;28;20228;-56
2022/07/04 01:29:22;;;;;;;1.75;1.65;;;;;;;17.31;80.34;96658.84;10411653;28;20211;-58
2022/07/04 01:34:23;;;;;;;4.25;1.80;;;;;;;16.73;83.56;96685.66;10410838;28;20228;-53
2022/07/04 01:39:23;;;;;;;2.75;2.03;;;;;;;16.67;85.16;96681.97;10411301;28;20201;-53
2022/07/04 01:44:23;;;;;;;6.47;2.00;;;;;;;16.58;85.19;96676.03;10410614;28;20236;-55
2022/07/04 01:49:24;;;;;;;4.07;2.10;;;;;;;16.53;85.67;96689.03;10411016;28;20220;-56
2022/07/04 01:54:26;;;;;;;2.65;2.35;;;;;;;16.39;87.03;96708.47;10410807;28;20212;-54
2022/07/04 02:01:29;;;;;;;2.80;1.98;;;;;;;16.19;89.00;96701.22;10410524;28;20698;-52
2022/07/04 02:04:49;;;;;;;5.45;2.30;;;;;;;15.94;92.62;96723.75;10410041;28;20442;-53
2022/07/04 02:09:50;;;;;;;3.83;2.20;;;;;;;15.76;93.94;96721.53;10410374;28;20801;-51
2022/07/04 02:14:50;;;;;;;5.38;2.33;;;;;;;15.63;96.84;96720.41;10410391;28;20622;-59
2022/07/04 02:19:51;;;;;;;5.28;2.33;;;;;;;15.22;100.00;96726.28;10417750;28;20203;-58
2022/07/04 02:24:51;;;;;;;5.78;2.42;;;;;;;15.20;100.00;96732.75;10417705;28;20224;-51
2022/07/04 02:29:52;;;;;;;6.45;2.28;;;;;;;15.19;100.00;96742.50;10417442;28;20609;-52
2022/07/04 02:34:52;;;;;;;4.45;2.20;;;;;;;15.04;100.00;96736.38;10417232;28;20212;-50
2022/07/04 02:39:52;;;;;;;4.00;2.33;;;;;;;15.11;100.00;96730.19;10417140;28;20215;-51
2022/07/04 02:44:53;;;;;;;2.72;2.03;;;;;;;15.26;100.00;96739.91;10416865;28;20231;-51
2022/07/04 02:49:53;;;;;;;3.47;2.17;;;;;;;15.10;100.00;96751.47;10416713;28;20266;-50
2022/07/04 02:54:54;;;;;;;3.50;2.20;;;;;;;15.08;100.00;96754.31;10416624;28;20201;-52
2022/07/04 02:59:54;;;;;;;5.22;2.20;;;;;;;14.65;100.00;96758.59;10416270;28;20275;-51
2022/07/04 03:04:54;;;;;;;4.68;2.22;;;;;;;14.93;100.00;96762.25;10434930;22;20237;-60
2022/07/04 03:09:55;;;;;;;3.67;2.33;;;;;;;14.89;100.00;96750.44;10375310;28;20204;-56
2022/07/04 03:14:55;;;;;;;4.05;2.00;;;;;;;14.75;100.00;96773.16;10372906;28;20292;-56
2022/07/04 03:19:57;;;;;;;3.08;2.03;;;;;;;14.92;100.00;96778.28;10368945;28;20199;-56
2022/07/04 03:24:57;;;;;;;2.38;2.08;;;;;;;14.95;100.00;96767.34;10368163;28;20221;-57
2022/07/04 03:29:58;;;;;;;5.40;2.10;;;;;;;14.86;100.00;96774.53;10373613;28;20667;-59
2022/07/04 03:34:58;;;;;;;8.98;3.05;;;;;;;14.99;100.00;96765.97;10373998;28;20735;-60
2022/07/04 03:39:58;;;;;;;2.13;1.75;;;;;;;14.96;100.00;96776.88;10374070;28;20192;-59
2022/07/04 03:44:59;;;;;;;6.45;2.05;;;;;;;14.97;100.00;96783.81;10373872;28;20221;-60
2022/07/04 03:49:59;;;;;;;2.92;2.20;;;;;;;15.12;100.00;96791.72;10373568;28;20196;-60
2022/07/04 03:55:00;;;;;;;3.97;1.90;;;;;;;15.42;100.00;96781.94;10373621;28;20288;-60
2022/07/04 04:00:00;;;;;;;2.05;1.88;;;;;;;15.60;100.00;96786.00;10372763;28;20193;-60
2022/07/04 04:10:20;;;;;;;2.45;1.80;;;;;;;16.12;100.00;96771.69;10372939;28;20201;-58
2022/07/04 04:15:20;;;;;;;5.05;2.22;;;;;;;16.05;100.00;96782.22;10373165;28;20221;-60
2022/07/04 04:20:21;;;;;;;5.53;2.35;;;;;;;16.20;100.00;96794.53;10373276;28;20196;-60
2022/07/04 04:25:21;;;;;;;7.57;2.08;;;;;;;16.24;100.00;96793.16;10372577;28;20271;-60
2022/07/04 04:30:21;;;;;;;5.80;2.00;;;;;;;16.23;100.00;96794.16;10372292;28;20280;-60
2022/07/04 04:35:22;;;;;;;4.32;2.10;;;;;;;16.33;100.00;96794.66;10371941;28;20259;-60
2022/07/04 04:40:22;;;;;;;5.22;2.45;;;;;;;16.61;100.00;96801.78;10371594;28;20193;-60
2022/07/04 04:45:22;;;;;;;8.10;2.10;;;;;;;16.78;100.00;96797.00;10371613;28;20235;-60
2022/07/04 04:50:23;;;;;;;3.10;1.85;;;;;;;16.97;100.00;96797.34;10371221;28;20197;-60
2022/07/04 04:55:23;;;;;;;2.50;2.30;;;;;;;17.17;100.00;96808.88;10371261;28;20258;-58
2022/07/04 05:00:23;;;;;;;10.93;2.85;;;;;;;17.11;99.39;96818.41;10371098;28;20217;-60
2022/07/04 05:05:24;;;;;;;4.78;2.35;;;;;;;17.31;98.68;96823.00;10370343;28;20256;-61
2022/07/04 05:10:24;;;;;;;3.55;2.10;;;;;;;17.59;97.23;96814.16;10371033;28;20559;-60
2022/07/04 05:15:25;;;;;;;3.40;2.20;;;;;;;17.67;94.61;96813.97;10370592;28;20205;-61
2022/07/04 05:20:25;;;;;;;4.78;2.92;;;;;;;17.15;97.85;96847.97;10370843;28;20197;-58
2022/07/04 05:25:26;;;;;;;4.15;2.65;;;;;;;17.09;100.00;96864.59;10370275;28;20235;-61
2022/07/04 05:30:26;;;;;;;5.72;3.10;;;;;;;17.14;100.00;96858.75;10370376;28;20198;-58
2022/07/04 05:35:27;;;;;;;6.32;3.75;;;;;;;17.05;100.00;96861.53;10370590;28;20270;-61
2022/07/04 05:40:27;;;;;;;3.53;3.10;;;;;;;17.36;100.00;96865.59;10370272;28;20197;-61
2022/07/04 05:45:28;;;;;;;4.60;2.97;;;;;;;17.52;100.00;96856.50;10370430;28;20227;-61
2022/07/04 05:50:28;;;;;;;6.97;3.22;;;;;;;17.85;100.00;96844.41;10370632;28;20212;-60
2022/07/04 05:55:28;;;;;;;5.50;3.28;;;;;;;17.95;100.00;96845.69;10378163;28;20209;-61
2022/07/04 06:00:29;;;;;;;4.97;3.35;;;;;;;17.99;100.00;96851.41;10377849;28;20760;-60
2022/07/04 06:05:29;;;;;;;6.95;3.50;;;;;;;17.96;100.00;96857.94;10376680;28;20600;-61
2022/07/04 06:10:30;;;;;;;5.65;3.50;;;;;;;18.06;100.00;96870.00;10377628;28;20239;-60
2022/07/04 06:15:30;;;;;;;5.68;3.63;;;;;;;17.57;100.00;96880.56;10376872;28;20205;-61
2022/07/04 06:20:30;;;;;;;5.30;3.72;;;;;;;17.59;100.00;96878.53;10377381;28;20189;-60
2022/07/04 06:25:31;;;;;;;6.82;3.35;;;;;;;17.86;100.00;96873.34;10376671;28;20381;-61
2022/07/04 06:30:31;;;;;;;5.60;3.03;;;;;;;19.20;94.08;96853.09;10376765;28;20644;-59
2022/07/04 06:40:53;;;;;;;10.50;3.58;;;;;;;20.41;79.60;96804.66;10376204;28;20648;-59
2022/07/04 06:45:53;;;;;;;6.72;2.42;;;;;;;20.06;84.74;96859.13;10376069;28;20712;-58
2022/07/04 06:50:54;;;;;;;5.05;2.55;;;;;;;20.96;77.12;96799.47;10375811;28;20196;-62
2022/07/04 06:55:54;;;;;;;2.67;2.10;;;;;;;21.06;79.45;96825.63;10375616;28;20221;-60
2022/07/04 07:00:54;;;;;;;4.50;1.80;;;;;;;22.37;71.36;96765.72;10375531;28;20202;-62
2022/07/04 07:05:56;;;;;;;4.10;2.58;;;;;;;21.38;73.01;96789.00;10373541;28;20315;-60
2022/07/04 07:10:57;;;;;;;3.80;2.75;;;;;;;20.26;80.20;96844.88;10373212;28;20197;-60
2022/07/04 07:15:59;;;;;;;5.15;2.25;;;;;;;21.49;78.31;96816.78;10365422;28;20224;-58
2022/07/04 07:20:59;;;;;;;3.20;1.63;;;;;;;22.78;70.74;96759.44;10371094;28;20193;-62
2022/07/04 07:25:59;;;;;;;6.13;1.75;;;;;;;24.16;64.76;96699.00;10373250;28;20221;-60
2022/07/04 07:31:01;;;;;;;3.10;1.90;;;;;;;24.93;60.46;96659.09;10373028;28;20177;-60
2022/07/04 07:36:01;;;;;;;5.35;1.77;;;;;;;24.99;61.05;96684.09;10373043;28;20579;-60
2022/07/04 07:41:02;;;;;;;2.42;1.70;;;;;;;25.47;60.74;96706.66;10372326;28;20207;-61
2022/07/04 07:46:06;;;;;;;4.25;1.65;;;;;;;24.61;62.94;96733.97;10372421;28;20252;-61
2022/07/04 07:51:06;;;;;;;4.10;2.20;;;;;;;22.84;66.80;96781.75;10370799;28;20683;-57
2022/07/04 07:56:07;;;;;;;3.22;1.95;;;;;;;23.72;64.02;96740.75;10368921;28;20217;-60
2022/07/04 08:01:07;;;;;;;3.88;1.95;;;;;;;24.68;62.35;96727.38;10369417;28;20221;-58
2022/07/04 08:06:08;;;;;;;3.38;1.63;;;;;;;25.03;59.40;96680.66;10367740;28;20247;-59
2022/07/04 08:11:12;;;;;;;3.42;1.65;;;;;;;24.78;62.20;96737.44;10366471;28;20217;-58
2022/07/04 08:16:12;;;;;;;3.72;1.45;;;;;;;25.97;56.94;96642.97;10370607;28;20244;-59
2022/07/04 08:21:16;;;;;;;1.80;1.55;;;;;;;25.77;54.90;96614.09;10371207;28;20264;-60
2022/07/04 08:26:16;;;;;;;2.20;1.60;;;;;;;25.63;55.07;96603.00;10371096;28;20229;-59
2022/07/04 08:31:18;;;;;;;4.75;1.13;;;;;;;26.21;57.09;96667.63;10370455;28;20197;-59
2022/07/04 08:36:18;;;;;;;1.90;1.20;;;;;;;26.76;53.88;96624.44;10370420;28;20263;-60
2022/07/04 08:41:19;;;;;;;5.50;1.33;;;;;;;26.91;52.40;96584.16;10370355;28;20267;-60
2022/07/04 08:46:21;;;;;;;3.10;1.50;;;;;;;25.80;53.18;96570.66;10370231;28;20312;-61
2022/07/04 08:51:39;;;;;;;9.13;1.40;;;;;;;27.44;53.04;96623.56;10368844;28;20444;-60
2022/07/04 09:01:58;;;;;;;2.13;1.48;;;;;;;28.24;50.77;96607.69;10369249;28;20190;-60
2022/07/04 09:06:59;;;;;;;2.87;1.30;;;;;;;27.76;51.58;96620.63;10404752;22;20686;-55
2022/07/04 09:11:59;;;;;;;10.60;7.85;;;;;;;27.55;51.38;96604.47;10409091;28;20876;-58
2022/07/04 09:17:00;;;;;;;2.20;1.37;;;;;;;27.84;50.53;96600.44;10410075;28;20706;-56
2022/07/04 09:22:11;;;;;;;5.78;1.38;;;;;;;26.70;53.59;96640.53;10410021;28;20948;-56
2022/07/04 09:27:11;;;;;;;1.80;1.35;;;;;;;25.88;56.40;96706.25;10413575;28;20313;-55
2022/07/04 09:32:23;;;;;;;5.55;1.50;;;;;;;26.51;53.67;96645.50;10418786;28;20687;-59
2022/07/04 09:37:41;;;;;;;1.35;1.17;;;;;;;27.17;53.12;96664.91;10416787;28;20954;-55
2022/07/04 09:42:42;;;;;;;2.95;1.40;;;;;;;27.11;52.67;96660.59;10418137;28;20285;-56
2022/07/04 09:47:45;;;;;;;4.65;1.52;;;;;;;27.50;51.88;96641.34;10420644;28;20224;-56
2022/07/04 09:53:05;;;;;;;1.65;1.50;;;;;;;27.08;53.61;96693.41;10438925;28;20246;-57
2022/07/04 09:58:08;;;;;;;2.65;1.30;;;;;;;27.94;50.15;96635.44;10430660;28;20207;-56
2022/07/04 10:03:32;;;;;;;2.67;1.50;;;;;;;27.17;50.63;96619.19;10439943;28;20662;-58
2022/07/04 10:08:44;;;;;;;1.63;1.20;;;;;;;26.30;52.58;96633.84;10421601;28;20224;-59
2022/07/04 10:13:45;;;;;;;4.28;1.60;;;;;;;25.79;55.59;96697.88;10417123;28;20197;-60
2022/07/04 10:18:46;;;;;;;1.90;1.30;;;;;;;26.38;54.44;96661.28;10415229;28;20207;-61
2022/07/04 10:23:47;;;;;;;3.05;1.20;;;;;;;26.63;52.45;96617.63;10416547;28;20200;-60
2022/07/04 10:28:49;;;;;;;2.55;1.45;;;;;;;25.84;53.75;96635.38;10416150;28;20244;-60
2022/07/04 10:33:50;;;;;;;4.40;1.35;;;;;;;28.11;50.58;96609.03;10416043;28;20322;-60
2022/07/04 10:38:51;;;;;;;2.25;1.50;;;;;;;25.68;51.51;96538.66;10411205;28;20926;-57
2022/07/04 10:43:52;;;;;;;3.05;1.20;;;;;;;27.11;53.99;96679.41;10410982;28;20311;-59
2022/07/04 10:49:14;;;;;;;2.65;1.27;;;;;;;28.94;48.20;96579.16;10411591;28;20209;-59
2022/07/04 10:54:32;;;;;;;3.00;1.05;;;;;;;29.91;46.85;96561.50;10410665;28;20207;-59
2022/07/04 10:59:33;;;;;;;1.88;1.40;;;;;;;30.31;44.03;96502.69;10410720;28;20201;-58
2022/07/04 11:05:00;;;;;;;3.75;1.10;;;;;;;30.15;44.12;96485.84;10410728;28;20216;-59
2022/07/04 11:10:21;;;;;;;2.80;1.10;;;;;;;29.93;44.33;96491.78;10411736;28;20718;-59
2022/07/04 11:15:25;;;;;;;2.70;1.40;;;;;;;31.76;42.35;96496.00;10410857;28;20262;-57
2022/07/04 11:20:27;;;;;;;2.92;1.30;;;;;;;32.16;41.15;96480.06;10410771;28;20208;-60
2022/07/04 11:25:27;;;;;;;2.63;1.35;;;;;;;28.31;46.94;96486.16;10410844;28;20216;-59
2022/07/04 11:30:28;;;;;;;5.70;1.10;;;;;;;31.09;43.13;96507.91;10410590;28;20197;-60
2022/07/04 11:35:28;;;;;;;2.00;1.10;;;;;;;28.96;47.90;96555.38;10409601;28;20286;-57
2022/07/04 11:46:11;;;;;;;3.58;1.40;;;;;;;29.23;46.35;96522.59;10409552;28;20854;-60
2022/07/04 11:51:18;;;;;;;2.53;1.13;;;;;;;31.06;44.10;96527.44;10408708;28;20208;-59
2022/07/04 11:56:18;;;;;;;2.33;1.13;;;;;;;30.72;44.48;96520.28;10409623;28;20212;-59
2022/07/04 12:01:27;;;;;;;2.10;1.40;;;;;;;32.58;42.27;96526.16;10409882;28;20770;-60
2022/07/04 12:06:28;;;;;;;1.83;1.23;;;;;;;33.95;38.76;96452.56;10407449;28;20993;-60
2022/07/04 12:11:53;;;;;;;3.63;1.30;;;;;;;33.94;38.33;96440.91;10406221;28;20195;-60
2022/07/04 12:17:11;;;;;;;4.50;1.30;;;;;;;31.20;42.35;96462.56;10404151;28;20997;-60
2022/07/04 12:22:11;;;;;;;3.20;1.15;;;;;;;31.81;41.32;96450.66;10404180;28;20195;-61
2022/07/04 12:27:20;;;;;;;1.97;1.30;;;;;;;32.17;41.68;96470.84;10407369;28;20681;-60
2022/07/04 12:32:21;;;;;;;4.55;1.20;;;;;;;33.12;38.65;96415.06;10405478;28;20443;-60
2022/07/04 12:37:21;;;;;;;3.90;1.42;;;;;;;32.18;39.29;96410.91;10404531;28;20691;-60
2022/07/04 12:42:22;;;;;;;1.43;1.00;;;;;;;32.70;39.61;96432.31;10404545;28;20189;-60
2022/07/04 12:47:23;;;;;;;2.88;1.00;;;;;;;30.65;42.83;96457.69;10406994;28;20515;-58
2022/07/04 12:52:27;;;;;;;4.75;1.00;;;;;;;30.81;42.43;96467.16;10407367;28;20763;-57
2022/07/04 12:57:27;;;;;;;3.15;1.30;;;;;;;28.97;45.58;96476.94;10406669;28;20204;-59
2022/07/04 13:02:28;;;;;;;4.90;1.17;;;;;;;28.50;47.24;96531.34;10405413;28;20196;-60
2022/07/04 13:07:28;;;;;;;3.58;0.95;;;;;;;29.07;46.38;96532.69;10406526;28;20537;-57
2022/07/04 13:12:29;;;;;;;3.80;1.07;;;;;;;27.84;49.56;96586.97;10404941;28;20219;-59
2022/07/04 13:17:29;;;;;;;3.13;1.40;;;;;;;27.40;49.78;96569.50;10406735;28;20553;-54
2022/07/04 13:22:30;;;;;;;5.90;1.23;;;;;;;27.80;48.33;96542.84;10406304;28;20290;-59
2022/07/04 13:27:30;;;;;;;2.00;1.17;;;;;;;27.47;49.63;96564.63;10405225;28;21009;-59
2022/07/04 13:32:32;;;;;;;1.17;1.08;;;;;;;27.18;50.16;96591.22;10406433;28;20257;-57
2022/07/04 13:37:33;;;;;;;3.45;1.27;;;;;;;27.61;48.99;96569.50;10406032;28;20209;-57
2022/07/04 13:47:52;;;;;;;1.75;1.10;;;;;;;27.12;50.43;96581.50;10404294;28;20905;-59
2022/07/04 13:52:53;;;;;;;4.13;1.33;;;;;;;27.43;49.54;96573.50;10404971;28;20291;-59
2022/07/04 13:57:53;;;;;;;5.68;1.48;;;;;;;28.59;46.70;96527.84;10405414;28;20216;-56
2022/07/04 14:02:54;;;;;;;3.35;1.00;;;;;;;30.51;43.71;96512.47;10406191;28;20188;-57
2022/07/04 14:07:54;;;;;;;3.47;1.30;;;;;;;31.06;42.09;96474.13;10404999;28;20236;-55
2022/07/04 14:12:55;;;;;;;3.80;1.15;;;;;;;30.30;41.82;96436.22;10408292;28;20439;-59
2022/07/04 14:17:55;;;;;;;3.20;1.20;;;;;;;30.57;41.66;96438.31;10411319;28;20223;-55
2022/07/04 14:22:55;;;;;;;2.30;1.00;;;;;;;31.06;42.35;96467.91;10411750;28;20562;-58
2022/07/04 14:27:56;;;;;;;3.77;1.00;;;;;;;33.15;38.45;96438.88;10411956;28;21021;-60
2022/07/04 14:32:56;;;;;;;2.50;1.03;;;;;;;34.75;35.77;96406.16;10412908;28;20928;-57
2022/07/04 14:37:57;;;;;;;2.27;1.00;;;;;;;34.97;35.53;96398.97;10410979;28;20987;-58
2022/07/04 14:42:57;;;;;;;2.50;0.90;;;;;;;35.27;33.96;96352.78;10410043;28;20442;-56
2022/07/04 14:47:57;;;;;;;4.47;1.30;;;;;;;32.53;37.58;96367.84;10410205;28;20311;-58
2022/07/04 14:52:58;;;;;;;4.07;1.27;;;;;;;31.13;40.47;96381.72;10411679;28;21284;-57
2022/07/04 14:57:58;;;;;;;3.03;1.00;;;;;;;32.70;37.80;96391.63;10411128;28;20459;-57
2022/07/04 15:02:58;;;;;;;4.50;1.10;;;;;;;33.87;36.08;96369.09;10411233;28;20446;-58
2022/07/04 15:07:59;;;;;;;2.13;1.30;;;;;;;34.69;34.71;96346.78;10410727;28;20911;-57
2022/07/04 15:12:59;;;;;;;2.30;1.00;;;;;;;35.97;31.72;96315.09;10411855;28;20542;-54
2022/07/04 15:18:00;;;;;;;6.27;1.30;;;;;;;35.52;33.23;96315.69;10411033;28;20262;-55
2022/07/04 15:28:19;;;;;;;1.33;1.20;;;;;;;35.39;34.10;96336.56;10369311;28;20224;-58
2022/07/04 15:33:19;;;;;;;3.47;1.08;;;;;;;34.92;32.79;96265.78;10369173;28;20224;-59
2022/07/04 15:38:19;;;;;;;1.83;1.10;;;;;;;32.86;35.94;96296.28;10369678;28;20656;-55
2022/07/04 15:43:20;;;;;;;1.37;1.10;;;;;;;31.12;39.72;96361.19;10369099;28;20320;-56
2022/07/04 15:48:20;;;;;;;4.13;1.02;;;;;;;30.90;40.13;96364.50;10368673;28;20516;-59
2022/07/04 15:53:21;;;;;;;3.20;1.00;;;;;;;29.43;42.89;96407.50;10366733;28;20224;-56
2022/07/04 15:58:21;;;;;;;4.80;1.20;;;;;;;27.94;44.87;96398.47;10367717;28;20451;-56
2022/07/04 16:03:21;;;;;;;3.23;1.10;;;;;;;27.63;46.20;96441.66;10368336;28;20320;-57
2022/07/04 16:08:21;;;;;;;1.90;1.13;;;;;;;27.10;47.50;96463.47;10367743;28;20471;-56
2022/07/04 16:13:22;;;;;;;3.33;1.00;;;;;;;26.45;48.27;96471.94;10368167;28;20526;-57
2022/07/04 16:18:22;;;;;;;3.53;1.10;;;;;;;26.41;48.98;96491.53;10367395;28;20789;-57
2022/07/04 16:23:23;;;;;;;2.67;1.10;;;;;;;26.65;46.56;96430.88;10367974;28;20571;-58
2022/07/04 16:28:23;;;;;;;1.98;0.98;;;;;;;27.56;44.36;96387.31;10366417;28;20848;-56
2022/07/04 16:33:23;;;;;;;4.10;1.10;;;;;;;26.77;44.32;96358.09;10367437;28;20217;-59
2022/07/04 16:38:24;;;;;;;2.10;0.90;;;;;;;26.52;44.83;96364.22;10364416;28;20451;-57
2022/07/04 16:43:24;;;;;;;2.65;0.85;;;;;;;26.28;45.37;96380.84;10365307;28;20220;-58
2022/07/04 16:48:24;;;;;;;2.27;0.90;;;;;;;26.00;45.15;96371.38;10365800;28;20766;-56
2022/07/04 16:53:25;;;;;;;3.95;0.90;;;;;;;26.30;44.35;96359.91;10368029;28;20988;-58
2022/07/04 16:58:26;;;;;;;6.00;1.00;;;;;;;25.32;46.14;96382.03;10367723;28;20328;-60
2022/07/04 17:03:26;;;;;;;10.07;1.30;;;;;;;24.98;47.95;96412.59;10367457;28;20460;-59
2022/07/04 17:08:26;;;;;;;7.22;1.10;;;;;;;25.28;47.13;96422.75;10367238;28;20221;-59
2022/07/04 17:13:27;;;;;;;1.55;0.95;;;;;;;25.40;46.76;96438.66;10367415;28;20221;-57
2022/07/04 17:18:27;;;;;;;5.80;1.08;;;;;;;25.34;47.10;96434.34;10365072;28;20242;-57
2022/07/04 17:23:27;;;;;;;3.85;1.50;;;;;;;25.13;47.25;96435.22;10365304;28;20319;-60
2022/07/04 17:28:29;;;;;;;2.05;1.13;;;;;;;25.27;46.89;96434.53;10366259;28;20267;-58
2022/07/04 17:33:29;;;;;;;3.10;1.40;;;;;;;25.00;47.56;96439.94;10366386;28;20235;-60
2022/07/04 17:38:29;;;;;;;3.75;1.20;;;;;;;24.40;49.11;96476.59;10365755;28;20201;-58
2022/07/04 17:43:30;;;;;;;2.47;1.42;;;;;;;24.27;49.50;96477.75;10366198;28;20233;-58
2022/07/04 17:48:31;;;;;;;2.10;1.27;;;;;;;24.24;49.93;96490.84;10370082;28;20227;-57
2022/07/04 17:53:32;;;;;;;7.20;1.33;;;;;;;24.09;48.99;96454.81;10373639;28;20267;-60
2022/07/04 17:58:32;;;;;;;3.22;1.20;;;;;;;24.00;49.43;96469.69;10374208;28;20181;-57
2022/07/04 18:03:33;;;;;;;1.58;1.13;;;;;;;23.80;49.71;96471.00;10373939;28;20328;-58
2022/07/04 18:08:33;;;;;;;2.05;1.63;;;;;;;23.67;50.14;96487.41;10371072;28;20589;-59
2022/07/04 18:13:33;;;;;;;3.83;1.40;;;;;;;23.83;50.54;96497.25;10371968;28;20807;-60
2022/07/04 18:18:34;;;;;;;3.00;1.25;;;;;;;23.68;50.54;96489.81;10372006;28;20672;-60
2022/07/04 18:23:34;;;;;;;5.35;1.50;;;;;;;23.70;50.93;96508.31;10372751;28;20328;-60
2022/07/04 18:28:34;;;;;;;7.68;1.65;;;;;;;23.54;51.73;96525.16;10372444;28;20320;-60
2022/07/04 18:33:35;;;;;;;3.25;1.30;;;;;;;23.09;53.27;96543.72;10372856;28;20220;-60
2022/07/04 18:38:36;;;;;;;1.25;1.00;;;;;;;23.01;53.79;96568.09;10371358;28;20197;-59
2022/07/04 18:43:36;;;;;;;1.92;1.13;;;;;;;22.92;53.54;96564.19;10372247;28;20300;-60
2022/07/04 18:48:37;;;;;;;2.65;1.13;;;;;;;22.49;55.73;96600.22;10371695;28;20737;-60
2022/07/04 18:53:37;;;;;;;1.98;1.40;;;;;;;22.34;56.74;96620.19;10372061;28;20292;-59
2022/07/04 18:58:38;;;;;;;5.22;1.25;;;;;;;21.81;58.90;96664.56;10371485;28;20660;-59
2022/07/04 19:03:38;;;;;;;4.05;1.42;;;;;;;21.54;59.75;96672.16;10371344;28;20211;-58
2022/07/04 19:08:39;;;;;;;5.78;1.35;;;;;;;21.25;62.84;96727.84;10353160;28;20213;-56
2022/07/04 19:13:39;;;;;;;4.18;1.70;;;;;;;19.35;68.48;96790.94;10369959;28;20248;-56
2022/07/04 19:18:40;;;;;;;8.27;1.67;;;;;;;19.66;67.66;96762.78;10370511;28;20185;-59
2022/07/04 19:23:40;;;;;;;6.03;1.80;;;;;;;19.37;69.25;96771.13;10375605;28;20229;-55
2022/07/04 19:28:42;;;;;;;4.05;1.80;;;;;;;18.27;73.49;96786.78;10369401;28;20637;-56
2022/07/04 19:33:43;;;;;;;4.60;1.77;;;;;;;17.65;76.54;96774.41;10368758;28;20634;-57
2022/07/04 19:38:43;;;;;;;2.22;1.52;;;;;;;17.56;79.08;96765.03;10367155;28;20255;-54
2022/07/04 19:43:43;;;;;;;3.05;1.70;;;;;;;17.62;79.50;96766.88;10367689;28;20214;-54
2022/07/04 19:48:44;;;;;;;6.68;2.05;;;;;;;17.67;78.77;96776.06;10368989;28;20771;-56
2022/07/04 19:53:44;;;;;;;2.58;1.95;;;;;;;16.83;82.94;96797.25;10367407;28;20577;-56
2022/07/04 19:58:44;;;;;;;6.50;1.95;;;;;;;16.84;86.10;96804.16;10348316;28;20751;-54
2022/07/04 20:03:45;;;;;;;1.95;1.50;;;;;;;16.86;85.90;96804.84;10366563;28;20638;-56
2022/07/04 20:08:45;;;;;;;6.43;2.00;;;;;;;16.51;88.41;96818.00;10366265;28;20217;-59
2022/07/04 20:13:45;;;;;;;5.70;2.20;;;;;;;16.35;91.50;96810.31;10368555;28;20271;-55
2022/07/04 20:18:46;;;;;;;2.63;2.20;;;;;;;16.31;92.52;96807.25;10368991;28;20182;-55
2022/07/04 20:23:49;;;;;;;3.88;2.35;;;;;;;16.44;91.02;96819.75;10368063;28;20316;-53
2022/07/04 20:28:49;;;;;;;8.77;2.22;;;;;;;16.32;92.90;96830.00;10368724;28;20287;-54
2022/07/04 20:33:50;;;;;;;5.55;2.40;;;;;;;15.97;95.93;96831.72;10367913;28;20209;-52
2022/07/04 20:38:50;;;;;;;4.22;2.63;;;;;;;16.11;96.18;96832.66;10367726;28;20196;-56
2022/07/04 20:43:51;;;;;;;4.15;2.70;;;;;;;16.09;95.71;96830.22;10368609;28;20212;-57
2022/07/04 20:48:51;;;;;;;5.65;2.63;;;;;;;15.93;97.65;96851.63;10367455;28;20213;-57
2022/07/04 20:53:51;;;;;;;5.75;2.63;;;;;;;15.75;98.91;96859.91;10367799;28;20323;-55
2022/07/04 20:58:52;;;;;;;6.78;2.20;;;;;;;15.67;98.87;96853.72;10367238;28;20276;-59
2022/07/04 21:03:52;;;;;;;5.18;2.20;;;;;;;15.61;98.61;96854.47;10367755;28;20224;-57
2022/07/04 21:08:53;;;;;;;4.05;2.40;;;;;;;15.60;100.00;96871.28;10366652;28;20217;-59
2022/07/04 21:13:53;;;;;;;21.33;2.90;;;;;;;15.40;100.00;96881.59;10365216;28;20213;-58
2022/07/04 21:18:54;;;;;;;4.97;2.80;;;;;;;15.31;100.00;96894.09;10366550;28;20201;-58
2022/07/04 21:23:54;;;;;;;4.70;2.75;;;;;;;15.48;100.00;96888.63;10366237;28;20291;-59
2022/07/04 21:28:54;;;;;;;3.60;2.55;;;;;;;15.40;100.00;96891.34;10365365;23;20245;-51
2022/07/04 21:33:55;;;;;;;3.67;2.40;;;;;;;15.34;100.00;96892.91;10328549;28;20190;-53
2022/07/04 21:38:55;;;;;;;6.63;3.00;;;;;;;15.41;100.00;96891.19;10328530;28;20696;-51
2022/07/04 21:43:55;;;;;;;3.47;2.50;;;;;;;15.51;100.00;96881.16;10328858;28;20543;-51
2022/07/04 21:48:56;;;;;;;2.50;2.30;;;;;;;15.50;99.54;96900.63;10328747;28;20650;-52
2022/07/04 21:53:56;;;;;;;4.32;2.47;;;;;;;15.27;100.00;96903.38;10328795;28;20295;-52
2022/07/04 21:58:58;;;;;;;3.88;2.50;;;;;;;15.46;100.00;96895.91;10328645;28;20617;-54
2022/07/04 22:03:58;;;;;;;5.43;2.53;;;;;;;15.47;99.94;96898.38;10328551;28;20550;-51
2022/07/04 22:08:58;;;;;;;4.53;2.40;;;;;;;15.44;99.88;96896.09;10328326;28;20225;-51
2022/07/04 22:13:59;;;;;;;3.30;2.72;;;;;;;15.36;100.00;96898.00;10328514;28;20186;-54
2022/07/04 22:18:59;;;;;;;4.68;2.78;;;;;;;15.48;99.21;96885.97;10327882;28;20341;-54
2022/07/04 22:23:59;;;;;;;2.63;2.35;;;;;;;15.43;98.04;96880.44;10328362;28;20256;-54
2022/07/04 22:29:00;;;;;;;3.08;2.78;;;;;;;15.19;100.00;96890.28;10327595;28;20237;-51
2022/07/04 22:34:00;;;;;;;5.22;3.42;;;;;;;15.10;100.00;96889.53;10331026;28;20581;-51
2022/07/04 22:39:01;;;;;;;2.90;2.50;;;;;;;15.20;100.00;96888.44;10334632;28;20627;-57
2022/07/04 22:44:02;;;;;;;2.85;2.10;;;;;;;15.20;100.00;96893.72;10334912;28;20197;-51
2022/07/04 22:49:02;;;;;;;3.22;2.42;;;;;;;15.19;100.00;96892.91;10334903;28;20245;-51
2022/07/04 22:59:22;;;;;;;4.78;2.42;;;;;;;15.37;100.00;96902.28;10334410;28;20583;-51
2022/07/04 23:04:23;;;;;;;2.95;2.25;;;;;;;15.26;100.00;96908.84;10334242;28;20202;-51
2022/07/04 23:09:25;;;;;;;6.30;2.67;;;;;;;15.24;100.00;96900.28;10334153;28;20218;-56
2022/07/04 23:14:25;;;;;;;4.20;2.50;;;;;;;15.30;100.00;96894.28;10333883;28;20193;-56
2022/07/04 23:19:26;;;;;;;3.10;2.25;;;;;;;15.17;100.00;96889.63;10333768;28;20214;-56
2022/07/04 23:24:27;;;;;;;3.72;2.45;;;;;;;15.04;100.00;96890.25;10333562;28;20206;-53
2022/07/04 23:29:27;;;;;;;5.30;2.45;;;;;;;14.92;100.00;96891.69;10333074;28;20391;-56
2022/07/04 23:34:27;;;;;;;5.65;2.83;;;;;;;14.90;100.00;96891.03;10332887;28;20272;-55
2022/07/04 23:39:29;;;;;;;3.58;2.70;;;;;;;14.76;100.00;96890.00;10332763;28;20636;-54
2022/07/04 23:44:29;;;;;;;2.90;2.45;;;;;;;14.67;100.00;96894.56;10331665;28;20202;-51
2022/07/04 23:49:29;;;;;;;4.32;2.58;;;;;;;14.60;100.00;96893.59;10332585;28;20226;-54
2022/07/04 23:54:30;;;;;;;3.22;2.42;;;;;;;14.40;100.00;96890.59;10332428;28;20312;-51